createdAt,value
2022-12-25T00:02:26.236Z,44.59
2022-12-25T00:07:30.136Z,44.70
2022-12-25T00:12:34.440Z,44.88
2022-12-25T00:17:37.207Z,44.94
2022-12-25T00:22:39.988Z,45.02
2022-12-25T00:27:44.229Z,45.06
2022-12-25T00:32:47.034Z,45.14
2022-12-25T00:37:49.993Z,45.23
2022-12-25T00:42:54.403Z,45.07
2022-12-25T00:47:57.419Z,45.12
2022-12-25T00:53:00.357Z,45.17
2022-12-25T00:58:04.493Z,45.28
2022-12-25T01:03:07.262Z,45.25
2022-12-25T01:08:10.042Z,45.27
2022-12-25T01:13:14.179Z,45.31
2022-12-25T01:18:17.118Z,45.40
2022-12-25T01:23:19.971Z,45.27
2022-12-25T01:28:24.082Z,45.33
2022-12-25T01:33:26.918Z,45.43
2022-12-25T01:38:29.679Z,45.38
2022-12-25T01:43:34.107Z,45.72
2022-12-25T01:48:37.994Z,45.77
2022-12-25T01:53:40.827Z,45.84
2022-12-25T01:58:45.037Z,45.95
2022-12-25T02:03:47.772Z,46.38
2022-12-25T02:08:50.668Z,46.50
2022-12-25T02:13:54.814Z,46.68
2022-12-25T02:18:58.980Z,46.86
2022-12-25T02:24:33.448Z,46.91
2022-12-25T02:29:43.738Z,47.15
2022-12-25T02:34:49.021Z,47.11
2022-12-25T02:40:00.591Z,47.43
2022-12-25T02:45:22.702Z,47.68
2022-12-25T02:50:43.234Z,48.04
2022-12-25T02:56:03.440Z,48.08
2022-12-25T03:01:27.508Z,48.37
2022-12-25T03:06:46.648Z,48.46
2022-12-25T03:11:51.660Z,48.40
2022-12-25T03:16:56.875Z,48.67
2022-12-25T03:22:17.190Z,48.96
2022-12-25T03:27:19.935Z,49.09
2022-12-25T03:32:28.314Z,49.23
2022-12-25T03:37:52.514Z,49.26
2022-12-25T03:43:14.693Z,49.58
2022-12-25T03:48:36.338Z,49.65
2022-12-25T03:53:58.975Z,49.88
2022-12-25T03:59:23.593Z,49.96
2022-12-25T04:04:45.490Z,50.03
2022-12-25T04:10:05.651Z,50.29
2022-12-25T04:15:27.576Z,50.15
2022-12-25T04:20:49.445Z,50.20
2022-12-25T04:26:09.703Z,50.46
2022-12-25T04:31:30.027Z,50.50
2022-12-25T04:36:34.202Z,50.58
2022-12-25T04:41:37.019Z,50.57
2022-12-25T04:46:39.862Z,50.81
2022-12-25T04:51:44.115Z,50.98
2022-12-25T04:56:46.873Z,50.96
2022-12-25T05:01:49.755Z,51.13
2022-12-25T05:06:53.976Z,51.12
2022-12-25T05:11:56.711Z,51.33
2022-12-25T05:16:59.454Z,51.45
2022-12-25T05:22:03.609Z,51.31
2022-12-25T05:27:06.372Z,51.57
2022-12-25T05:32:09.143Z,51.80
2022-12-25T05:37:13.527Z,51.86
2022-12-25T05:42:16.488Z,52.06
2022-12-25T05:47:19.275Z,52.15
2022-12-25T05:52:23.493Z,51.86
2022-12-25T05:57:26.335Z,51.94
2022-12-25T06:02:29.356Z,52.39
2022-12-25T06:07:33.670Z,52.13
2022-12-25T06:12:36.506Z,52.53
2022-12-25T06:17:39.290Z,52.38
2022-12-25T06:22:43.503Z,52.47
2022-12-25T06:27:46.331Z,52.72
2022-12-25T06:32:49.082Z,52.53
2022-12-25T06:37:53.194Z,52.68
2022-12-25T06:42:56.213Z,52.80
2022-12-25T06:47:59.057Z,52.55
2022-12-25T06:53:03.215Z,52.87
2022-12-25T06:58:06.045Z,52.76
2022-12-25T07:03:08.876Z,52.57
2022-12-25T07:08:13.049Z,52.65
2022-12-25T07:13:15.985Z,52.73
2022-12-25T07:18:18.837Z,52.84
2022-12-25T07:23:23.088Z,52.95
2022-12-25T07:28:25.975Z,53.02
2022-12-25T07:33:28.773Z,53.10
2022-12-25T07:38:32.988Z,53.00
2022-12-25T07:43:35.721Z,53.25
2022-12-25T07:48:38.628Z,53.25
2022-12-25T07:53:43.043Z,53.39
2022-12-25T07:58:45.977Z,53.30
2022-12-25T08:03:52.241Z,43.06
2022-12-25T08:08:56.496Z,40.69
2022-12-25T08:13:59.241Z,42.63
2022-12-25T08:19:02.065Z,46.01
2022-12-25T08:24:06.839Z,46.50
2022-12-25T08:29:09.674Z,46.81
2022-12-25T08:34:12.639Z,47.70
2022-12-25T08:39:16.866Z,48.93
2022-12-25T08:44:19.846Z,49.74
2022-12-25T08:49:22.693Z,49.78
2022-12-25T08:54:27.098Z,49.93
2022-12-25T08:59:29.858Z,49.58
2022-12-25T09:04:32.684Z,49.83
2022-12-25T09:09:37.017Z,49.83
2022-12-25T09:14:39.844Z,50.19
2022-12-25T09:19:42.673Z,50.11
2022-12-25T09:24:46.927Z,50.21
2022-12-25T09:29:50.287Z,50.75
2022-12-25T09:34:53.051Z,50.84
2022-12-25T09:39:57.176Z,51.25
2022-12-25T09:45:01.824Z,51.40
2022-12-25T09:50:07.994Z,51.51
2022-12-25T09:55:19.783Z,51.54
2022-12-25T10:00:23.961Z,51.98
2022-12-25T10:05:35.729Z,52.00
2022-12-25T10:10:51.903Z,52.25
2022-12-25T10:15:59.142Z,52.06
2022-12-25T10:21:03.954Z,52.14
2022-12-25T10:26:15.446Z,52.31
2022-12-25T10:31:21.959Z,52.26
2022-12-25T10:36:25.595Z,52.28
2022-12-25T10:41:40.963Z,52.24
2022-12-25T10:46:43.957Z,52.14
2022-12-25T10:51:46.832Z,52.30
2022-12-25T10:56:58.845Z,52.36
2022-12-25T11:02:05.679Z,52.21
2022-12-25T11:07:09.678Z,51.76
2022-12-25T11:12:18.301Z,51.52
2022-12-25T11:17:23.066Z,51.54
2022-12-25T11:22:26.434Z,51.22
2022-12-25T11:27:33.593Z,51.27
2022-12-25T11:32:39.022Z,51.05
2022-12-25T11:37:43.669Z,51.19
2022-12-25T11:42:49.503Z,50.94
2022-12-25T11:47:53.115Z,51.77
2022-12-25T11:52:56.003Z,51.68
2022-12-25T11:58:02.435Z,51.48
2022-12-25T12:03:07.980Z,51.29
2022-12-25T12:08:11.010Z,51.20
2022-12-25T12:13:27.072Z,50.77
2022-12-25T12:18:31.220Z,50.69
2022-12-25T12:23:36.078Z,50.36
2022-12-25T12:28:44.235Z,49.87
2022-12-25T12:33:51.827Z,49.07
2022-12-25T12:38:54.910Z,48.27
2022-12-25T12:43:59.441Z,47.88
2022-12-25T12:49:09.659Z,47.30
2022-12-25T12:54:20.779Z,47.19
2022-12-25T12:59:25.144Z,47.22
2022-12-25T13:04:35.317Z,47.26
2022-12-25T13:09:46.568Z,47.34
2022-12-25T13:14:50.947Z,47.67
2022-12-25T13:19:56.375Z,47.72
2022-12-25T13:25:00.356Z,47.47
2022-12-25T13:30:14.838Z,47.67
2022-12-25T13:35:17.723Z,47.65
2022-12-25T13:40:22.740Z,47.29
2022-12-25T13:45:27.923Z,47.65
2022-12-25T13:50:31.646Z,47.97
2022-12-25T13:55:34.447Z,47.84
2022-12-25T14:00:39.554Z,47.88
2022-12-25T14:05:43.669Z,47.50
2022-12-25T14:10:48.212Z,47.44
2022-12-25T14:15:53.300Z,47.46
2022-12-25T14:20:59.048Z,47.77
2022-12-25T14:26:01.851Z,47.89
2022-12-25T14:31:06.402Z,47.73
2022-12-25T14:36:10.681Z,47.82
2022-12-25T14:41:25.896Z,47.82
2022-12-25T14:46:32.370Z,47.75
2022-12-25T14:51:36.332Z,48.02
2022-12-25T14:56:40.052Z,47.96
2022-12-25T15:01:44.701Z,47.94
2022-12-25T15:06:53.969Z,47.74
2022-12-25T15:11:57.167Z,48.03
2022-12-25T15:17:01.818Z,48.12
2022-12-25T15:22:04.836Z,48.23
2022-12-25T15:27:10.443Z,48.10
2022-12-25T15:32:17.497Z,48.28
2022-12-25T15:37:20.341Z,48.48
2022-12-25T15:42:24.023Z,48.40
2022-12-25T15:47:28.208Z,48.63
2022-12-25T15:52:31.146Z,49.05
2022-12-25T15:57:35.078Z,48.88
2022-12-25T16:02:39.429Z,49.05
2022-12-25T16:07:42.436Z,49.14
2022-12-25T16:12:45.391Z,49.26
2022-12-25T16:17:49.506Z,49.26
2022-12-25T16:22:52.263Z,49.53
2022-12-25T16:27:55.037Z,49.41
2022-12-25T16:32:59.244Z,49.91
2022-12-25T16:38:02.041Z,49.57
2022-12-25T16:43:04.819Z,49.63
2022-12-25T16:48:09.224Z,49.56
2022-12-25T16:53:12.484Z,49.93
2022-12-25T16:58:15.226Z,49.83
2022-12-25T17:03:19.541Z,49.95
2022-12-25T17:08:22.542Z,50.10
2022-12-25T17:13:25.321Z,50.34
2022-12-25T17:18:29.593Z,50.06
2022-12-25T17:23:32.577Z,50.29
2022-12-25T17:28:35.571Z,50.32
2022-12-25T17:33:40.176Z,50.10
2022-12-25T17:38:49.273Z,50.26
2022-12-25T17:43:52.058Z,50.52
2022-12-25T17:48:56.734Z,50.46
2022-12-25T17:54:00.709Z,50.36
2022-12-25T17:59:06.614Z,50.41
2022-12-25T18:04:11.053Z,50.44
2022-12-25T18:09:13.935Z,50.64
2022-12-25T18:14:17.011Z,50.50
2022-12-25T18:19:21.555Z,50.77
2022-12-25T18:24:24.384Z,50.92
2022-12-25T18:29:27.386Z,51.59
2022-12-25T18:34:31.785Z,51.94
2022-12-25T18:39:34.573Z,52.15
2022-12-25T18:44:37.523Z,52.06
2022-12-25T18:49:41.616Z,52.21
2022-12-25T18:54:44.581Z,52.52
2022-12-25T18:59:47.564Z,52.42
2022-12-25T19:04:52.628Z,52.58
2022-12-25T19:09:55.756Z,52.71
2022-12-25T19:14:59.030Z,52.75
2022-12-25T19:20:03.428Z,53.04
2022-12-25T19:25:07.378Z,52.83
2022-12-25T19:30:11.602Z,53.12
2022-12-25T19:35:15.878Z,52.98
2022-12-25T19:40:18.880Z,52.75
2022-12-25T19:45:21.817Z,52.55
2022-12-25T19:50:28.411Z,51.93
2022-12-25T19:55:32.840Z,51.83
2022-12-25T20:00:35.701Z,51.60
2022-12-25T20:05:39.862Z,51.30
2022-12-25T20:10:44.348Z,51.20
2022-12-25T20:15:47.128Z,50.93
2022-12-25T20:20:51.266Z,50.78
2022-12-25T20:25:54.085Z,50.67
2022-12-25T20:30:57.195Z,50.30
2022-12-25T20:36:01.821Z,50.53
2022-12-25T20:46:29.331Z,50.44
2022-12-25T20:51:33.671Z,50.18
2022-12-25T20:56:36.680Z,50.13
2022-12-25T21:01:39.852Z,49.94
2022-12-25T21:06:44.065Z,49.82
2022-12-25T21:11:47.148Z,49.96
2022-12-25T21:16:50.286Z,49.65
2022-12-25T21:21:54.810Z,49.58
2022-12-25T21:26:57.764Z,49.40
2022-12-25T21:32:17.950Z,49.50
2022-12-25T21:37:23.135Z,49.36
2022-12-25T21:42:25.905Z,49.43
2022-12-25T21:47:59.784Z,49.27
2022-12-25T21:52:52.964Z,49.26
2022-12-25T21:57:55.951Z,49.40
2022-12-25T22:02:58.924Z,49.24
2022-12-25T22:08:03.319Z,49.48
2022-12-25T22:13:23.518Z,49.24
2022-12-25T22:18:44.041Z,49.21
2022-12-25T22:23:48.280Z,49.27
2022-12-25T22:28:51.038Z,49.24
2022-12-25T22:33:53.852Z,49.08
2022-12-25T22:38:58.030Z,48.79
2022-12-25T22:44:17.883Z,48.68
2022-12-25T22:49:21.267Z,48.81
2022-12-25T22:54:25.501Z,48.61
2022-12-25T22:59:28.292Z,48.65
2022-12-25T23:04:31.165Z,48.88
2022-12-25T23:09:35.337Z,48.81
2022-12-25T23:14:41.599Z,48.92
2022-12-25T23:20:01.991Z,48.94
2022-12-25T23:25:28.773Z,48.67
2022-12-25T23:30:33.307Z,49.05
2022-12-25T23:35:36.206Z,49.17
2022-12-25T23:40:40.338Z,49.34
2022-12-25T23:45:43.115Z,49.62
2022-12-25T23:50:45.877Z,49.74
2022-12-25T23:55:55.277Z,49.88
